Collinsville, Ohio
Current Conditions -  °F | °C
As of 11:35 AM on Wednesday 26 Nov 2014 (Local Time) from KMWO Reporting Station
Overcast Overcast  
Wind Chill: 34°   Ceiling: 2800
Heat Index: 34°   Visibility: 10mi
Dew Point: 26°   Wind: 3mph
Humidity: 72%   Direction: 50°NE
Pressure: 30.14"   Gusts: NA
Location:  39.52°N, 84.61°W
Report Text: KMWO 261635Z AUTO 05003KT 10SM SCT015 OVC028 01/M03 A3014 RMK AO2 T00121033
Loading
Personal Weather Stations






























Interactive Weather Map New forecast layout! Learn more

10-Day Weather Forecast

Advertisements
Track Severe Weather on mobile